Firestone, Colorado
Current Conditions -  °F | °C
As of 5:15 AM on Sunday 23 Nov 2014 (Local Time) from KEIK Reporting Station
Overcast Overcast  
Wind Chill: 37°   Ceiling: 11000
Heat Index: 37°   Visibility: 10mi
Dew Point: 23°   Wind: 3mph
Humidity: 56%   Direction: 350°N
Pressure: 29.69"   Gusts: NA
Location:  40.11°N, 104.94°W
Report Text: KEIK 231215Z AUTO 35003KT 10SM SCT080 OVC110 03/M05 A2969 RMK AO2 T00271052
Loading
Personal Weather Stations






























Interactive Weather Map New forecast layout! Learn more

10-Day Weather Forecast

Advertisements
Track Severe Weather on mobile